Time;durP1;ratioP1;P1;durP2;ratioP2;P2;SDS_P1;SDS_P2;PMS_P1;PMS_P2;Temp;Humidity;BMP_temperature;BMP_pressure;BME280_temperature;BME280_humidity;BME280_pressure;Samples;Min_cycle;Max_cycle;Signal;HPM_P1;HPM_P2
2023/07/01 00:00:27;;;;;;;9.30;2.17;;;;;;;18.48;86.64;100494.25;6218613;23;20016;-75
2023/07/01 00:02:53;;;;;;;11.40;2.08;;;;;;;18.49;88.50;100494.06;6168629;23;20733;-75
2023/07/01 00:05:19;;;;;;;3.80;2.10;;;;;;;18.40;88.09;100484.09;6193506;23;20428;-75
2023/07/01 00:07:45;;;;;;;4.57;1.95;;;;;;;18.41;87.15;100487.72;6218494;23;20425;-75
2023/07/01 00:10:11;;;;;;;11.10;2.00;;;;;;;18.38;88.61;100469.53;6193693;23;20012;-75
2023/07/01 00:12:36;;;;;;;12.35;2.03;;;;;;;18.29;88.27;100465.94;6218566;23;20436;-75
2023/07/01 00:15:03;;;;;;;4.28;1.67;;;;;;;18.42;88.93;100467.28;6218408;23;20087;-75
2023/07/01 00:17:29;;;;;;;6.38;2.28;;;;;;;18.40;88.63;100467.47;6218749;23;20785;-75
2023/07/01 00:19:54;;;;;;;6.68;2.17;;;;;;;18.35;90.05;100469.94;6218976;23;20008;-75
2023/07/01 00:22:19;;;;;;;6.72;2.90;;;;;;;18.42;89.59;100470.06;6168584;23;20142;-74
2023/07/01 00:24:45;;;;;;;8.20;2.42;;;;;;;18.40;89.75;100463.81;6168857;23;20012;-75
2023/07/01 00:27:10;;;;;;;8.70;2.35;;;;;;;18.34;90.77;100459.88;6245327;23;20420;-74
2023/07/01 00:29:36;;;;;;;7.85;3.55;;;;;;;18.27;90.39;100462.50;6218481;23;20019;-75
2023/07/01 00:32:05;;;;;;;6.70;2.22;;;;;;;18.31;90.73;100460.22;6193490;23;20012;-74
2023/07/01 00:34:31;;;;;;;10.20;2.47;;;;;;;18.33;89.75;100460.91;6169063;23;20019;-74
2023/07/01 00:36:56;;;;;;;6.20;2.13;;;;;;;18.31;91.75;100455.53;6218320;23;20012;-75
2023/07/01 00:39:22;;;;;;;7.97;3.08;;;;;;;18.26;91.19;100444.16;6193242;23;20012;-75
2023/07/01 00:41:54;;;;;;;8.80;2.28;;;;;;;18.29;91.12;100443.78;6193401;23;20016;-75
2023/07/01 00:44:21;;;;;;;10.38;2.58;;;;;;;18.24;92.37;100437.94;6193518;23;20008;-75
2023/07/01 00:46:46;;;;;;;7.32;2.10;;;;;;;18.19;91.93;100444.00;6245450;23;20016;-75
2023/07/01 00:49:12;;;;;;;14.90;2.85;;;;;;;18.22;93.02;100436.38;6220172;23;20909;-75
2023/07/01 00:51:38;;;;;;;9.40;2.03;;;;;;;18.22;92.03;100428.06;6194915;23;20344;-75
2023/07/01 00:54:04;;;;;;;5.45;2.13;;;;;;;18.16;92.32;100424.13;6246987;23;20012;-75
2023/07/01 00:56:30;;;;;;;8.63;2.40;;;;;;;18.24;92.55;100417.66;6220046;23;20027;-74
2023/07/01 00:58:55;;;;;;;10.48;2.50;;;;;;;18.19;92.85;100410.75;6220298;23;20336;-74
2023/07/01 01:01:27;;;;;;;10.40;2.83;;;;;;;18.19;92.69;100407.97;6220545;23;20012;-72
2023/07/01 01:04:03;;;;;;;8.52;2.38;;;;;;;18.22;92.98;100404.00;6246783;23;20010;-72
2023/07/01 01:06:56;;;;;;;7.63;2.47;;;;;;;18.23;92.90;100393.75;6195021;23;20012;-72
2023/07/01 01:09:36;;;;;;;8.73;2.10;;;;;;;18.16;92.80;100393.63;6246250;23;20040;-74
2023/07/01 01:12:04;;;;;;;11.27;2.40;;;;;;;18.23;93.01;100383.53;6246917;23;20434;-73
2023/07/01 01:14:33;;;;;;;11.40;2.65;;;;;;;18.17;95.14;100385.13;6194597;23;20016;-73
2023/07/01 01:17:04;;;;;;;9.07;2.40;;;;;;;18.18;94.09;100381.34;6245393;23;20019;-73
2023/07/01 01:19:39;;;;;;;9.05;2.10;;;;;;;18.22;94.70;100376.28;6219838;23;20019;-73
2023/07/01 01:22:40;;;;;;;7.28;2.58;;;;;;;18.19;96.20;100371.09;6219476;23;20091;-72
2023/07/01 01:25:08;;;;;;;8.45;2.63;;;;;;;18.12;95.95;100357.13;6246738;23;20012;-76
2023/07/01 01:27:39;;;;;;;6.00;2.25;;;;;;;18.17;95.68;100359.34;6220079;23;20012;-73
2023/07/01 01:30:09;;;;;;;9.52;2.45;;;;;;;18.14;95.57;100363.34;6246648;23;20008;-73
2023/07/01 01:32:35;;;;;;;14.23;2.42;;;;;;;18.15;95.94;100355.88;6246592;23;20014;-72
2023/07/01 01:35:01;;;;;;;6.28;1.88;;;;;;;18.18;95.74;100355.50;6219843;23;20091;-73
2023/07/01 01:37:37;;;;;;;11.18;2.28;;;;;;;18.13;94.90;100356.06;6219575;23;20008;-72
2023/07/01 01:40:32;;;;;;;11.98;2.10;;;;;;;18.12;94.70;100362.66;6219676;23;20004;-73
2023/07/01 01:43:07;;;;;;;3.60;1.90;;;;;;;18.18;94.61;100356.41;6165988;23;20004;-72
2023/07/01 01:45:34;;;;;;;6.95;2.15;;;;;;;18.12;94.54;100350.72;6219421;23;20008;-73
2023/07/01 01:48:03;;;;;;;12.48;2.22;;;;;;;18.19;94.37;100352.56;6194767;23;20012;-73
2023/07/01 01:50:31;;;;;;;11.18;2.30;;;;;;;18.29;94.53;100360.63;6220251;23;20016;-72
2023/07/01 01:52:58;;;;;;;10.23;2.20;;;;;;;18.33;94.51;100359.22;6219194;23;20396;-72
2023/07/01 01:55:25;;;;;;;8.45;2.00;;;;;;;18.35;94.17;100347.97;6219675;23;20012;-74
2023/07/01 01:57:52;;;;;;;9.57;2.00;;;;;;;18.32;95.02;100351.94;6194309;23;20012;-72
2023/07/01 02:00:18;;;;;;;4.72;2.10;;;;;;;18.32;95.80;100346.41;6246106;23;20126;-72
2023/07/01 02:02:44;;;;;;;14.52;2.30;;;;;;;18.29;96.19;100340.38;6194805;23;20016;-73
2023/07/01 02:05:09;;;;;;;7.47;2.50;;;;;;;18.21;96.90;100343.22;6246354;23;20018;-74
2023/07/01 02:07:35;;;;;;;4.80;2.22;;;;;;;18.21;98.57;100340.44;6219657;23;20042;-73
2023/07/01 02:10:00;;;;;;;9.45;3.00;;;;;;;18.21;98.98;100344.06;6219522;23;20086;-73
2023/07/01 02:12:26;;;;;;;12.48;2.72;;;;;;;18.19;98.98;100337.84;6219156;23;20020;-72
2023/07/01 02:14:51;;;;;;;14.27;2.13;;;;;;;18.13;100.00;100331.13;6219385;23;20012;-71
2023/07/01 02:17:17;;;;;;;9.30;2.60;;;;;;;17.98;100.00;100324.66;6219306;23;20012;-72
2023/07/01 02:19:43;;;;;;;10.73;2.85;;;;;;;17.93;100.00;100322.44;6246228;23;20510;-73
2023/07/01 02:22:08;;;;;;;13.88;2.88;;;;;;;17.90;100.00;100320.03;6219040;23;20040;-73
2023/07/01 02:24:34;;;;;;;10.15;3.40;;;;;;;17.96;100.00;100310.97;6219545;23;20039;-73
2023/07/01 02:27:00;;;;;;;8.98;2.75;;;;;;;17.97;100.00;100317.38;6194351;23;20043;-72
2023/07/01 02:29:26;;;;;;;6.38;2.53;;;;;;;17.87;100.00;100303.75;6219420;23;20500;-73
2023/07/01 02:31:51;;;;;;;5.28;2.80;;;;;;;17.92;100.00;100312.41;6218887;23;20042;-73
2023/07/01 02:34:24;;;;;;;6.32;2.15;;;;;;;17.95;100.00;100312.03;6194066;23;20062;-72
2023/07/01 02:36:49;;;;;;;8.70;2.88;;;;;;;17.92;100.00;100301.34;6219480;23;20057;-72
2023/07/01 02:39:15;;;;;;;14.93;2.50;;;;;;;17.93;100.00;100308.56;6220108;23;20132;-73
2023/07/01 02:41:40;;;;;;;9.07;2.67;;;;;;;17.89;100.00;100304.47;6194423;23;20380;-73
2023/07/01 02:44:06;;;;;;;6.00;2.30;;;;;;;17.92;100.00;100308.75;6219403;23;20412;-72
2023/07/01 02:46:31;;;;;;;8.65;2.65;;;;;;;17.88;100.00;100304.66;6219366;23;20066;-72
2023/07/01 02:48:57;;;;;;;6.47;2.60;;;;;;;18.04;100.00;100306.41;6219076;23;20034;-74
2023/07/01 02:51:22;;;;;;;10.35;2.75;;;;;;;17.92;100.00;100309.66;6194050;23;20102;-72
2023/07/01 02:53:47;;;;;;;3.95;2.40;;;;;;;17.84;100.00;100304.13;6194093;23;20015;-73
2023/07/01 02:56:14;;;;;;;10.15;3.33;;;;;;;17.98;100.00;100295.03;6193785;23;20012;-73
2023/07/01 02:58:39;;;;;;;7.60;2.42;;;;;;;17.85;100.00;100294.75;6219021;23;20470;-72
2023/07/01 03:01:04;;;;;;;13.35;2.65;;;;;;;17.93;100.00;100294.72;6219466;23;20043;-73
2023/07/01 03:03:30;;;;;;;7.85;2.58;;;;;;;17.83;100.00;100294.09;6169071;23;20070;-72
2023/07/01 03:05:55;;;;;;;6.68;2.30;;;;;;;17.83;100.00;100280.22;6194170;23;20020;-73
2023/07/01 03:08:21;;;;;;;5.85;2.50;;;;;;;17.81;100.00;100290.63;6218971;23;20018;-72
2023/07/01 03:10:46;;;;;;;5.90;2.83;;;;;;;17.79;100.00;100279.75;6168592;23;20016;-73
2023/07/01 03:13:11;;;;;;;10.57;2.58;;;;;;;17.83;100.00;100286.63;6245400;23;20383;-73
2023/07/01 03:15:37;;;;;;;8.68;2.47;;;;;;;17.82;100.00;100284.03;6218828;23;20079;-72
2023/07/01 03:18:02;;;;;;;6.07;2.38;;;;;;;17.69;100.00;100287.41;6193742;23;20016;-73
2023/07/01 03:20:28;;;;;;;7.72;2.33;;;;;;;17.58;100.00;100291.47;6194277;23;20043;-74
2023/07/01 03:22:57;;;;;;;4.40;1.90;;;;;;;17.58;100.00;100279.53;6193597;23;20436;-72
2023/07/01 03:25:24;;;;;;;5.38;1.98;;;;;;;17.63;100.00;100280.69;6218759;23;20030;-74
2023/07/01 03:27:49;;;;;;;4.20;2.05;;;;;;;17.47;100.00;100277.16;6218807;23;20004;-72
2023/07/01 03:30:16;;;;;;;11.88;2.92;;;;;;;17.58;100.00;100282.31;6245125;23;20383;-72
2023/07/01 03:32:43;;;;;;;7.78;2.53;;;;;;;17.54;100.00;100267.09;6218451;23;20008;-73
2023/07/01 03:35:10;;;;;;;8.60;2.22;;;;;;;17.42;100.00;100272.16;6218830;23;20012;-72
2023/07/01 03:37:36;;;;;;;8.93;2.53;;;;;;;17.36;100.00;100268.19;6218799;23;20019;-73
2023/07/01 03:40:04;;;;;;;9.38;2.60;;;;;;;17.31;100.00;100258.72;6193508;23;20008;-72
2023/07/01 03:42:30;;;;;;;8.38;2.60;;;;;;;17.30;100.00;100262.53;6245339;23;20008;-72
2023/07/01 03:44:55;;;;;;;5.43;2.42;;;;;;;17.09;100.00;100258.47;6193800;23;20088;-73
2023/07/01 03:47:21;;;;;;;9.52;2.50;;;;;;;17.08;100.00;100254.81;6194072;23;20005;-72
2023/07/01 03:49:47;;;;;;;5.95;3.00;;;;;;;16.93;100.00;100247.47;6193288;23;20443;-73
2023/07/01 03:52:13;;;;;;;11.70;3.00;;;;;;;17.02;100.00;100255.56;6193247;23;20012;-73
2023/07/01 03:54:38;;;;;;;6.05;2.70;;;;;;;16.92;100.00;100249.34;6193490;23;20444;-73
2023/07/01 03:57:04;;;;;;;9.05;2.50;;;;;;;16.79;100.00;100249.03;6218859;23;20008;-72
2023/07/01 03:59:30;;;;;;;4.22;2.25;;;;;;;16.75;100.00;100254.06;6193209;23;20326;-72
2023/07/01 04:01:55;;;;;;;11.13;2.70;;;;;;;16.75;100.00;100251.28;6218543;23;20008;-73
2023/07/01 04:04:21;;;;;;;12.57;2.58;;;;;;;16.76;100.00;100250.25;6218502;23;20022;-72
2023/07/01 04:06:46;;;;;;;4.95;2.85;;;;;;;16.69;100.00;100240.94;6218424;23;20035;-72
2023/07/01 04:09:12;;;;;;;9.35;3.00;;;;;;;16.69;100.00;100250.09;6193911;23;20451;-73
2023/07/01 04:11:40;;;;;;;5.65;2.50;;;;;;;16.88;100.00;100242.47;6245372;23;20020;-73
2023/07/01 04:14:06;;;;;;;4.78;2.10;;;;;;;16.68;100.00;100233.69;6218322;23;20062;-72
2023/07/01 04:16:32;;;;;;;4.50;2.53;;;;;;;16.78;100.00;100242.66;6168774;23;20012;-73
2023/07/01 04:18:59;;;;;;;6.55;2.58;;;;;;;16.59;100.00;100227.31;6168964;23;20012;-73
2023/07/01 04:21:25;;;;;;;4.80;2.72;;;;;;;16.49;100.00;100229.41;6168802;23;20008;-73
2023/07/01 04:23:50;;;;;;;11.73;3.10;;;;;;;16.55;100.00;100225.94;6246954;23;20042;-73
2023/07/01 04:26:16;;;;;;;8.10;3.28;;;;;;;16.49;100.00;100234.94;6220547;23;20009;-72
2023/07/01 04:28:41;;;;;;;9.95;2.95;;;;;;;16.35;100.00;100231.00;6195196;23;20020;-73
2023/07/01 04:31:07;;;;;;;11.20;3.70;;;;;;;16.24;100.00;100243.25;6194954;23;20012;-73
2023/07/01 04:33:32;;;;;;;8.05;3.50;;;;;;;16.21;100.00;100234.47;6194992;23;20016;-72
2023/07/01 04:35:58;;;;;;;12.43;3.60;;;;;;;16.12;100.00;100236.38;6195009;23;20015;-72
2023/07/01 04:38:23;;;;;;;10.77;3.38;;;;;;;16.18;100.00;100227.38;6220364;23;20050;-72
2023/07/01 04:40:48;;;;;;;12.07;3.58;;;;;;;16.04;100.00;100219.81;6220210;23;20440;-72
2023/07/01 04:43:14;;;;;;;7.68;3.45;;;;;;;16.08;100.00;100226.69;6247056;23;20089;-72
2023/07/01 04:45:43;;;;;;;9.23;3.95;;;;;;;16.02;100.00;100230.13;6195032;23;20016;-71
2023/07/01 04:48:10;;;;;;;8.55;3.30;;;;;;;16.02;100.00;100232.91;6194896;23;20019;-73
2023/07/01 04:50:35;;;;;;;14.20;3.60;;;;;;;16.02;100.00;100235.66;6220112;23;20008;-73
2023/07/01 04:53:01;;;;;;;7.78;3.63;;;;;;;15.89;100.00;100238.94;6247160;23;20336;-73
2023/07/01 04:55:26;;;;;;;7.78;3.67;;;;;;;15.81;100.00;100234.28;6169470;23;20011;-73
2023/07/01 04:57:52;;;;;;;10.88;3.70;;;;;;;15.83;100.00;100234.97;6219499;23;20008;-72
2023/07/01 05:00:18;;;;;;;8.73;3.30;;;;;;;15.63;100.00;100228.88;6246438;23;20012;-73
2023/07/01 05:02:44;;;;;;;9.10;4.22;;;;;;;15.66;100.00;100222.13;6219871;23;20498;-72
2023/07/01 05:05:10;;;;;;;7.10;3.92;;;;;;;15.76;100.00;100231.19;6246571;23;20004;-73
2023/07/01 05:07:35;;;;;;;6.32;3.72;;;;;;;15.70;100.00;100224.41;6220048;23;20058;-72
2023/07/01 05:10:01;;;;;;;8.20;3.38;;;;;;;15.78;100.00;100229.09;6219640;23;20012;-72
2023/07/01 05:12:27;;;;;;;6.75;3.67;;;;;;;15.80;100.00;100235.31;6195046;23;20008;-72
2023/07/01 05:14:54;;;;;;;7.10;4.03;;;;;;;15.72;100.00;100224.22;6194939;23;20014;-72
2023/07/01 05:17:20;;;;;;;9.35;3.47;;;;;;;15.83;100.00;100232.22;6246685;23;20428;-72
2023/07/01 05:19:46;;;;;;;6.40;3.47;;;;;;;15.74;100.00;100213.88;6246652;23;20087;-72
2023/07/01 05:22:11;;;;;;;4.93;3.45;;;;;;;15.82;100.00;100216.66;6219545;23;20042;-73
2023/07/01 05:24:36;;;;;;;5.65;3.22;;;;;;;15.74;100.00;100219.38;6219792;23;20067;-73
2023/07/01 05:27:02;;;;;;;9.30;4.10;;;;;;;15.84;100.00;100217.38;6195149;23;20012;-73
2023/07/01 05:29:28;;;;;;;5.50;4.60;;;;;;;15.95;100.00;100213.41;6246489;23;20320;-73
2023/07/01 05:31:55;;;;;;;13.57;5.45;;;;;;;16.05;100.00;100205.78;6219502;23;20327;-72
2023/07/01 05:34:21;;;;;;;9.40;6.20;;;;;;;16.03;100.00;100212.53;6194542;23;20035;-72
2023/07/01 05:36:47;;;;;;;9.15;5.40;;;;;;;16.07;100.00;100216.66;6219881;23;20012;-72
2023/07/01 05:39:13;;;;;;;9.27;5.80;;;;;;;16.01;100.00;100212.72;6246357;23;20022;-73
2023/07/01 05:41:40;;;;;;;8.57;5.00;;;;;;;15.99;100.00;100207.38;6246356;23;20390;-73
2023/07/01 05:44:05;;;;;;;6.00;4.47;;;;;;;15.92;100.00;100208.22;6219612;23;20324;-72
2023/07/01 05:46:30;;;;;;;9.95;4.55;;;;;;;15.95;100.00;100213.41;6194809;23;20027;-73
2023/07/01 05:48:56;;;;;;;9.02;5.70;;;;;;;16.02;100.00;100197.00;6219799;23;20012;-72
2023/07/01 05:51:21;;;;;;;14.38;5.85;;;;;;;16.13;100.00;100202.16;6219784;23;20008;-72
2023/07/01 05:53:47;;;;;;;13.80;6.63;;;;;;;16.03;100.00;100202.34;6194424;23;20294;-72
2023/07/01 05:56:12;;;;;;;9.50;7.88;;;;;;;16.22;100.00;100205.81;6219368;23;20012;-73
2023/07/01 05:58:38;;;;;;;9.18;7.15;;;;;;;16.15;100.00;100202.84;6219572;23;20016;-73
2023/07/01 06:01:04;;;;;;;12.95;7.85;;;;;;;16.11;100.00;100207.88;6219679;23;20015;-72
2023/07/01 06:03:29;;;;;;;8.65;7.38;;;;;;;16.10;100.00;100206.16;6219555;23;20141;-72
2023/07/01 06:05:54;;;;;;;10.05;6.95;;;;;;;16.18;100.00;100197.00;6219310;23;20012;-73
2023/07/01 06:08:20;;;;;;;8.75;6.93;;;;;;;16.21;100.00;100187.50;6194145;23;20023;-73
2023/07/01 06:10:45;;;;;;;9.45;7.53;;;;;;;16.32;100.00;100198.19;6218978;23;20336;-74
2023/07/01 06:13:11;;;;;;;10.50;7.80;;;;;;;16.16;100.00;100201.84;6245656;23;20063;-74
2023/07/01 06:15:36;;;;;;;8.95;7.00;;;;;;;16.17;100.00;100204.41;6218928;23;20031;-73
2023/07/01 06:18:01;;;;;;;10.23;6.70;;;;;;;16.17;100.00;100193.38;6218911;23;20015;-73
2023/07/01 06:20:27;;;;;;;13.93;7.93;;;;;;;16.28;100.00;100192.16;6218918;23;20336;-73
2023/07/01 06:22:52;;;;;;;10.85;7.00;;;;;;;16.25;100.00;100189.75;6245338;23;20103;-73
2023/07/01 06:25:18;;;;;;;9.10;5.82;;;;;;;16.16;100.00;100190.78;6193800;23;20090;-73
2023/07/01 06:27:43;;;;;;;10.43;5.75;;;;;;;16.32;100.00;100192.66;6193965;23;20012;-73
2023/07/01 06:30:09;;;;;;;7.53;5.53;;;;;;;16.40;100.00;100198.19;6193530;23;20019;-73
2023/07/01 06:32:35;;;;;;;6.07;4.40;;;;;;;16.30;100.00;100184.56;6193706;23;20043;-72
2023/07/01 06:35:00;;;;;;;8.10;4.18;;;;;;;16.33;100.00;100186.97;6218872;23;20379;-73
2023/07/01 06:37:26;;;;;;;4.53;3.90;;;;;;;16.37;100.00;100178.34;6245695;23;20016;-73
2023/07/01 06:39:51;;;;;;;4.78;4.28;;;;;;;16.42;100.00;100182.28;6245336;23;20095;-73
2023/07/01 06:42:18;;;;;;;6.55;4.22;;;;;;;16.45;100.00;100175.56;6218688;23;20043;-73
2023/07/01 06:44:43;;;;;;;6.90;4.03;;;;;;;16.46;100.00;100178.13;6193524;23;20012;-73
2023/07/01 06:47:08;;;;;;;5.63;3.78;;;;;;;16.52;100.00;100182.09;6245681;23;20019;-73
2023/07/01 06:49:34;;;;;;;4.38;3.45;;;;;;;16.45;100.00;100181.06;6245147;23;20322;-73
2023/07/01 06:51:59;;;;;;;11.32;3.42;;;;;;;16.51;100.00;100172.94;6245340;23;20012;-73
2023/07/01 06:54:25;;;;;;;7.18;3.53;;;;;;;16.37;100.00;100175.56;6193819;23;20012;-73
2023/07/01 06:56:50;;;;;;;4.57;3.65;;;;;;;16.43;100.00;100195.06;6245331;23;20040;-73
2023/07/01 06:59:16;;;;;;;8.90;4.35;;;;;;;16.58;100.00;100180.50;6218567;23;20028;-73
2023/07/01 07:01:45;;;;;;;7.07;4.18;;;;;;;16.54;100.00;100175.34;6193491;23;20019;-73
2023/07/01 07:04:10;;;;;;;5.40;4.18;;;;;;;16.61;100.00;100185.66;6245347;23;20005;-72
2023/07/01 07:06:35;;;;;;;4.28;3.63;;;;;;;16.52;100.00;100187.59;6193619;23;20320;-74
2023/07/01 07:09:04;;;;;;;8.65;4.28;;;;;;;16.67;100.00;100173.91;6193275;23;20436;-73
2023/07/01 07:11:30;;;;;;;6.22;3.72;;;;;;;16.57;100.00;100170.50;6193489;23;20388;-73
2023/07/01 07:13:56;;;;;;;6.10;4.03;;;;;;;16.65;100.00;100171.31;6218002;23;20008;-73
2023/07/01 07:16:21;;;;;;;5.22;3.97;;;;;;;16.63;100.00;100178.09;6218395;23;20012;-73
2023/07/01 07:18:46;;;;;;;4.82;4.22;;;;;;;16.64;100.00;100172.38;6218585;23;20054;-74
2023/07/01 07:21:12;;;;;;;8.57;4.07;;;;;;;16.73;100.00;100163.00;6168324;23;20047;-73
2023/07/01 07:23:37;;;;;;;4.20;3.45;;;;;;;16.80;100.00;100167.81;6168152;23;20027;-73
2023/07/01 07:26:03;;;;;;;4.03;3.38;;;;;;;16.68;100.00;100170.13;6244992;23;20016;-73
2023/07/01 07:28:28;;;;;;;6.18;3.15;;;;;;;16.71;100.00;100167.00;6218446;23;20432;-73
2023/07/01 07:30:53;;;;;;;4.10;2.72;;;;;;;16.75;100.00;100160.06;6193243;23;20038;-72
2023/07/01 07:33:19;;;;;;;3.20;2.90;;;;;;;16.86;100.00;100158.84;6244894;23;20065;-72
2023/07/01 07:35:45;;;;;;;3.45;2.65;;;;;;;16.87;100.00;100152.25;6244969;23;20092;-72
2023/07/01 07:38:10;;;;;;;2.80;2.20;;;;;;;16.84;100.00;100156.22;6193303;23;20063;-73
2023/07/01 07:40:36;;;;;;;3.72;2.35;;;;;;;16.93;100.00;100153.47;6168424;23;20008;-73
2023/07/01 07:43:11;;;;;;;2.97;1.90;;;;;;;16.87;100.00;100149.50;6193054;23;20008;-73
2023/07/01 07:45:36;;;;;;;2.20;2.00;;;;;;;16.87;100.00;100158.66;6193065;23;20022;-74
2023/07/01 07:48:02;;;;;;;3.72;2.00;;;;;;;16.88;100.00;100162.28;6193131;23;20431;-73
2023/07/01 07:50:27;;;;;;;8.38;1.73;;;;;;;16.77;100.00;100152.44;6218325;23;20087;-72
2023/07/01 07:52:53;;;;;;;2.00;1.75;;;;;;;16.90;100.00;100165.72;6218044;23;20015;-72
2023/07/01 07:55:18;;;;;;;3.22;1.98;;;;;;;16.93;100.00;100161.75;6193066;23;20019;-73
2023/07/01 07:57:44;;;;;;;2.25;1.60;;;;;;;16.93;100.00;100164.50;6219638;23;20008;-73
2023/07/01 08:00:10;;;;;;;4.47;2.50;;;;;;;16.93;100.00;100158.97;6247155;23;20095;-73
2023/07/01 08:02:42;;;;;;;2.80;1.90;;;;;;;16.90;100.00;100154.66;6220149;23;20004;-74
2023/07/01 08:05:07;;;;;;;4.28;2.00;;;;;;;16.95;100.00;100152.22;6220359;23;20489;-73
2023/07/01 08:07:33;;;;;;;2.13;1.85;;;;;;;16.98;100.00;100154.63;6220243;23;20016;-73
2023/07/01 08:09:58;;;;;;;3.85;2.17;;;;;;;17.07;100.00;100145.25;6220187;23;20015;-73
2023/07/01 08:12:24;;;;;;;2.53;2.05;;;;;;;17.20;100.00;100147.44;6195074;23;20062;-72
2023/07/01 08:14:49;;;;;;;3.42;1.77;;;;;;;17.22;100.00;100139.78;6195070;23;20004;-71
2023/07/01 08:17:14;;;;;;;3.58;2.05;;;;;;;17.22;100.00;100144.47;6195027;23;20019;-73
2023/07/01 08:19:40;;;;;;;2.58;1.90;;;;;;;17.32;100.00;100133.19;6220157;23;20317;-73
2023/07/01 08:22:05;;;;;;;3.90;2.03;;;;;;;17.36;100.00;100135.38;6194758;23;20479;-73
2023/07/01 08:24:31;;;;;;;2.08;1.88;;;;;;;17.39;100.00;100140.53;6220046;23;20016;-72
2023/07/01 08:26:56;;;;;;;4.35;2.20;;;;;;;17.42;100.00;100134.63;6220153;23;20012;-72
2023/07/01 08:29:22;;;;;;;5.22;2.20;;;;;;;17.47;100.00;100142.41;6219915;23;20074;-72
2023/07/01 08:31:47;;;;;;;4.57;2.20;;;;;;;17.49;100.00;100134.75;6194491;23;20015;-73
2023/07/01 08:34:12;;;;;;;2.38;1.83;;;;;;;17.66;100.00;100134.63;6219822;23;20016;-73
2023/07/01 08:36:38;;;;;;;3.35;1.98;;;;;;;17.41;100.00;100135.69;6219928;23;20081;-73
2023/07/01 08:39:03;;;;;;;4.38;1.73;;;;;;;17.63;100.00;100135.88;6195025;23;20309;-73
2023/07/01 08:41:35;;;;;;;1.70;1.60;;;;;;;17.58;100.00;100130.88;6219956;23;20058;-72
2023/07/01 08:44:05;;;;;;;3.05;1.95;;;;;;;17.66;100.00;100129.97;6246719;23;20011;-72
2023/07/01 08:46:30;;;;;;;2.20;1.70;;;;;;;17.70;100.00;100122.16;6246765;23;20062;-72
2023/07/01 08:48:57;;;;;;;1.85;1.73;;;;;;;17.63;100.00;100119.28;6169992;23;20016;-73
2023/07/01 08:51:35;;;;;;;3.67;1.85;;;;;;;17.78;100.00;100130.38;6194937;23;20016;-72
2023/07/01 08:54:02;;;;;;;6.65;2.03;;;;;;;17.94;100.00;100127.50;6219683;23;20004;-73
2023/07/01 08:56:27;;;;;;;2.35;1.67;;;;;;;18.05;100.00;100125.31;6194717;23;20050;-75
2023/07/01 08:58:53;;;;;;;3.88;1.73;;;;;;;17.88;100.00;100122.69;6246402;23;20012;-72
2023/07/01 09:01:19;;;;;;;2.50;1.40;;;;;;;17.70;100.00;100116.63;6219759;23;20492;-73
2023/07/01 09:03:48;;;;;;;1.60;1.50;;;;;;;17.72;100.00;100125.59;6194584;23;20058;-73
2023/07/01 09:06:14;;;;;;;1.75;1.55;;;;;;;17.75;100.00;100117.75;6219727;23;20012;-75
2023/07/01 09:08:39;;;;;;;1.58;1.35;;;;;;;17.70;100.00;100119.38;6245711;23;20091;-72
2023/07/01 09:11:06;;;;;;;1.88;1.42;;;;;;;17.78;100.00;100125.69;6194466;23;20344;-72
2023/07/01 09:13:31;;;;;;;1.88;1.40;;;;;;;17.93;100.00;100130.44;6194093;23;20016;-73
2023/07/01 09:15:57;;;;;;;1.50;1.40;;;;;;;17.77;100.00;100121.22;6194663;23;20432;-72
2023/07/01 09:18:24;;;;;;;1.50;1.40;;;;;;;17.83;100.00;100126.00;6246074;23;20004;-72
2023/07/01 09:20:50;;;;;;;1.95;1.50;;;;;;;17.79;100.00;100129.31;6219557;23;20328;-72
2023/07/01 09:23:34;;;;;;;2.85;1.83;;;;;;;17.87;100.00;100126.50;6193867;23;20100;-72
2023/07/01 09:26:10;;;;;;;2.58;1.52;;;;;;;17.94;100.00;100118.34;6184509;23;20013;-72
2023/07/01 09:28:36;;;;;;;1.63;1.40;;;;;;;17.89;100.00;100126.31;6184162;23;20009;-72
2023/07/01 09:31:03;;;;;;;3.08;1.52;;;;;;;17.92;100.00;100118.53;6185611;23;20112;-72
2023/07/01 09:33:30;;;;;;;2.33;1.40;;;;;;;17.99;100.00;100124.16;6184251;23;20087;-72
2023/07/01 09:36:01;;;;;;;2.33;1.17;;;;;;;18.09;100.00;100115.59;6184434;23;20020;-72
2023/07/01 09:38:31;;;;;;;1.40;1.30;;;;;;;17.94;100.00;100119.19;6159967;23;20009;-72
2023/07/01 09:41:13;;;;;;;1.48;1.38;;;;;;;17.93;100.00;100113.84;6185650;23;20333;-72
2023/07/01 09:43:39;;;;;;;1.58;1.48;;;;;;;17.88;100.00;100116.31;6185664;23;20009;-72
2023/07/01 09:46:05;;;;;;;1.50;1.40;;;;;;;18.02;100.00;100123.78;6184196;23;20463;-72
2023/07/01 09:48:33;;;;;;;1.98;1.38;;;;;;;17.90;100.00;100115.06;6183936;23;20016;-71
2023/07/01 09:51:06;;;;;;;3.17;1.70;;;;;;;17.97;100.00;100115.16;6184276;23;20441;-71
2023/07/01 09:53:33;;;;;;;2.10;1.73;;;;;;;17.94;100.00;100108.09;6185504;23;20040;-71
2023/07/01 09:56:02;;;;;;;1.80;1.70;;;;;;;17.97;100.00;100109.63;6184216;23;20012;-71
2023/07/01 09:58:28;;;;;;;4.35;2.00;;;;;;;18.14;100.00;100110.34;6183941;23;20479;-71
2023/07/01 10:00:54;;;;;;;2.03;1.92;;;;;;;18.07;100.00;100114.91;6159122;23;20013;-73
2023/07/01 10:03:20;;;;;;;3.00;1.73;;;;;;;18.00;100.00;100112.91;6184020;23;20021;-72
2023/07/01 10:05:49;;;;;;;1.90;1.35;;;;;;;18.35;100.00;100099.34;6183987;23;20100;-72
2023/07/01 10:08:15;;;;;;;1.70;1.60;;;;;;;18.28;100.00;100100.28;6185303;23;20012;-72
2023/07/01 10:10:40;;;;;;;1.85;1.45;;;;;;;18.31;100.00;100094.38;6159071;23;20017;-72
2023/07/01 10:13:07;;;;;;;1.73;1.60;;;;;;;18.24;100.00;100093.44;6158938;23;20021;-72
2023/07/01 10:15:34;;;;;;;3.33;1.70;;;;;;;18.46;100.00;100092.47;6185494;23;20044;-72
2023/07/01 10:17:59;;;;;;;2.30;2.10;;;;;;;18.32;100.00;100093.34;6159227;23;20009;-73
2023/07/01 10:20:29;;;;;;;5.22;2.05;;;;;;;18.26;100.00;100096.88;6185059;23;20341;-72
2023/07/01 10:23:00;;;;;;;3.15;1.80;;;;;;;18.16;100.00;100102.69;6216894;23;20020;-73
2023/07/01 10:25:29;;;;;;;3.58;2.17;;;;;;;18.07;100.00;100092.72;6169002;23;20114;-73
2023/07/01 10:27:59;;;;;;;2.58;1.92;;;;;;;18.12;100.00;100096.66;6218533;23;20012;-71
2023/07/01 10:30:25;;;;;;;2.83;2.15;;;;;;;18.05;100.00;100094.84;6218686;23;20066;-72
2023/07/01 10:32:51;;;;;;;3.45;2.10;;;;;;;18.23;100.00;100091.69;6245377;23;20081;-72
2023/07/01 10:35:17;;;;;;;2.50;2.30;;;;;;;18.31;100.00;100091.59;6218784;23;20008;-72
2023/07/01 10:38:04;;;;;;;4.90;2.40;;;;;;;18.34;100.00;100096.78;6218636;23;20007;-72
2023/07/01 10:40:29;;;;;;;4.55;2.70;;;;;;;18.37;100.00;100093.63;6192815;23;20034;-71
2023/07/01 10:43:22;;;;;;;4.50;2.72;;;;;;;18.34;100.00;100094.84;6218697;23;20079;-71
2023/07/01 10:46:05;;;;;;;3.33;3.03;;;;;;;18.31;100.00;100088.84;6193793;23;20111;-72
2023/07/01 10:48:30;;;;;;;3.45;3.03;;;;;;;18.57;100.00;100088.34;6218670;23;20008;-72
2023/07/01 10:51:15;;;;;;;4.30;2.90;;;;;;;18.57;100.00;100082.81;6218709;23;20157;-71
2023/07/01 10:54:04;;;;;;;3.55;3.25;;;;;;;18.55;100.00;100085.75;6193083;23;20448;-72
2023/07/01 10:56:31;;;;;;;4.43;3.15;;;;;;;18.57;100.00;100081.94;6193337;23;20131;-71
2023/07/01 10:59:20;;;;;;;4.82;3.60;;;;;;;18.60;100.00;100087.13;6218602;23;20432;-71
2023/07/01 11:01:48;;;;;;;8.13;3.45;;;;;;;18.68;100.00;100081.47;6244967;23;20027;-71
2023/07/01 11:04:14;;;;;;;4.93;2.60;;;;;;;18.67;100.00;100077.81;6193397;23;20000;-72
2023/07/01 11:06:46;;;;;;;4.07;2.92;;;;;;;18.64;100.00;100078.19;6193209;23;20359;-72
2023/07/01 11:09:13;;;;;;;3.55;3.25;;;;;;;18.66;100.00;100078.00;6193327;23;20436;-72
2023/07/01 11:11:38;;;;;;;4.88;2.78;;;;;;;18.64;100.00;100078.19;6245197;23;20020;-71
2023/07/01 11:14:09;;;;;;;4.38;3.35;;;;;;;18.77;100.00;100084.97;6218155;23;20019;-73
2023/07/01 11:16:36;;;;;;;5.07;3.90;;;;;;;18.62;100.00;100083.06;6245234;23;20710;-73